Time;durP1;ratioP1;P1;durP2;ratioP2;P2;SDS_P1;SDS_P2;PMS_P1;PMS_P2;Temp;Humidity;BMP_temperature;BMP_pressure;BME280_temperature;BME280_humidity;BME280_pressure;Samples;Min_cycle;Max_cycle;Signal;HPM_P1;HPM_P2
2023/04/23 00:01:06;;;;;;;84.03;44.10;;;;;;;6.83;100.00;100741.44;5082687;28;20032;-73
2023/04/23 00:03:33;;;;;;;84.93;42.80;;;;;;;6.84;100.00;100735.41;5108245;28;20047;-74
2023/04/23 00:06:01;;;;;;;83.22;43.13;;;;;;;6.78;100.00;100723.38;5109648;28;20027;-74
2023/04/23 00:08:28;;;;;;;82.28;41.70;;;;;;;6.79;100.00;100738.03;5104223;28;20057;-74
2023/04/23 00:10:53;;;;;;;81.75;42.42;;;;;;;6.74;100.00;100729.47;5111359;28;20035;-74
2023/04/23 00:13:19;;;;;;;83.53;42.55;;;;;;;6.75;100.00;100726.00;5108428;28;20440;-74
2023/04/23 00:15:44;;;;;;;81.22;41.17;;;;;;;6.73;100.00;100717.34;5111191;28;20027;-74
2023/04/23 00:18:09;;;;;;;82.18;43.28;;;;;;;6.71;100.00;100729.50;5111670;28;20383;-74
2023/04/23 00:20:35;;;;;;;79.65;40.88;;;;;;;6.70;100.00;100716.53;5112215;28;20030;-74
2023/04/23 00:23:01;;;;;;;84.45;41.42;;;;;;;6.69;100.00;100720.84;5112728;28;20111;-74
2023/04/23 00:25:26;;;;;;;79.55;41.40;;;;;;;6.68;100.00;100724.34;5110633;28;20485;-74
2023/04/23 00:27:51;;;;;;;74.80;39.80;;;;;;;6.65;100.00;100721.78;5110134;28;20502;-74
2023/04/23 00:30:17;;;;;;;73.47;40.88;;;;;;;6.66;100.00;100725.22;5115976;28;20027;-73
2023/04/23 00:32:43;;;;;;;76.85;39.97;;;;;;;6.66;100.00;100722.63;5116602;27;20462;-74
2023/04/23 00:35:09;;;;;;;66.47;36.65;;;;;;;6.66;100.00;100722.63;5111106;27;20016;-74
2023/04/23 00:37:34;;;;;;;71.20;37.40;;;;;;;6.59;100.00;100720.97;5116977;28;20496;-74
2023/04/23 00:39:59;;;;;;;69.68;37.90;;;;;;;6.58;100.00;100722.69;5111725;28;20019;-74
2023/04/23 00:42:25;;;;;;;71.35;38.22;;;;;;;6.59;100.00;100721.81;5111370;28;20023;-73
2023/04/23 00:44:51;;;;;;;71.22;38.25;;;;;;;6.59;100.00;100715.78;5116368;28;20031;-73
2023/04/23 00:47:16;;;;;;;70.45;38.65;;;;;;;6.59;100.00;100701.09;5116119;28;20083;-73
2023/04/23 00:49:42;;;;;;;73.45;39.15;;;;;;;6.67;100.00;100707.09;5112633;28;20016;-74
2023/04/23 00:52:07;;;;;;;75.38;40.10;;;;;;;6.71;100.00;100700.13;5114855;28;20152;-74
2023/04/23 00:54:32;;;;;;;73.65;38.85;;;;;;;6.75;100.00;100694.91;5115825;28;20107;-74
2023/04/23 00:56:58;;;;;;;77.10;39.17;;;;;;;6.80;100.00;100694.84;5116143;28;20023;-74
2023/04/23 00:59:25;;;;;;;76.32;38.47;;;;;;;6.89;100.00;100696.47;5115457;28;20273;-74
2023/04/23 01:01:52;;;;;;;77.70;40.28;;;;;;;6.94;100.00;100695.56;5111147;28;20375;-74
2023/04/23 01:04:19;;;;;;;76.75;39.70;;;;;;;6.97;100.00;100694.69;5116421;27;20080;-74
2023/04/23 01:06:46;;;;;;;77.25;40.13;;;;;;;6.95;100.00;100683.47;5108180;28;20111;-74
2023/04/23 01:09:11;;;;;;;75.00;38.25;;;;;;;6.97;100.00;100685.16;5099698;28;20024;-73
2023/04/23 01:11:39;;;;;;;69.97;38.58;;;;;;;6.96;100.00;100682.56;5110582;28;20023;-73
2023/04/23 01:14:04;;;;;;;74.35;39.30;;;;;;;6.96;100.00;100673.06;5115793;28;20048;-74
2023/04/23 01:16:30;;;;;;;76.45;40.03;;;;;;;6.96;100.00;100678.25;5115723;28;20459;-74
2023/04/23 01:18:57;;;;;;;70.82;39.50;;;;;;;6.92;100.00;100681.75;5114507;27;20032;-74
2023/04/23 01:21:22;;;;;;;69.18;39.30;;;;;;;6.92;100.00;100678.31;5107248;28;20024;-74
2023/04/23 01:23:48;;;;;;;72.47;38.65;;;;;;;6.88;100.00;100674.03;5115109;28;20043;-74
2023/04/23 01:26:14;;;;;;;71.32;38.95;;;;;;;6.92;100.00;100680.91;5108986;28;20521;-74
2023/04/23 01:28:41;;;;;;;72.75;38.33;;;;;;;6.92;100.00;100675.72;5115486;28;20362;-74
2023/04/23 01:31:07;;;;;;;75.88;39.70;;;;;;;6.92;100.00;100665.34;5109134;28;20077;-74
2023/04/23 01:33:32;;;;;;;74.07;39.00;;;;;;;6.97;100.00;100676.53;5115892;28;20032;-74
2023/04/23 01:35:59;;;;;;;74.82;38.55;;;;;;;6.97;100.00;100663.59;5113835;28;20398;-74
2023/04/23 01:38:29;;;;;;;72.68;38.30;;;;;;;7.05;100.00;100666.94;5115164;28;20043;-74
2023/04/23 01:40:55;;;;;;;76.95;40.78;;;;;;;7.08;100.00;100666.03;5109081;28;20032;-74
2023/04/23 01:43:23;;;;;;;74.82;38.67;;;;;;;7.10;100.00;100667.75;5114982;28;20030;-74
2023/04/23 01:45:49;;;;;;;74.07;38.55;;;;;;;7.11;100.00;100660.81;5113750;28;20024;-74
2023/04/23 01:48:14;;;;;;;76.57;39.53;;;;;;;7.16;100.00;100670.28;5114775;28;20118;-74
2023/04/23 01:50:41;;;;;;;75.68;39.03;;;;;;;7.18;100.00;100671.09;5113211;27;20022;-74
2023/04/23 01:53:06;;;;;;;73.82;37.92;;;;;;;7.21;100.00;100670.19;5115424;28;20030;-74
2023/04/23 01:55:33;;;;;;;68.88;38.88;;;;;;;7.17;100.00;100665.94;5112706;28;20741;-74
2023/04/23 01:57:58;;;;;;;67.00;38.13;;;;;;;7.18;100.00;100667.63;5113175;28;20016;-74
2023/04/23 02:00:24;;;;;;;64.63;37.58;;;;;;;7.13;100.00;100666.81;5115448;28;20458;-74
2023/04/23 02:02:52;;;;;;;64.82;35.78;;;;;;;7.06;100.00;100663.44;5109982;28;20499;-74
2023/04/23 02:05:18;;;;;;;69.65;36.40;;;;;;;7.00;100.00;100668.72;5114598;28;20026;-74
2023/04/23 02:07:45;;;;;;;63.22;35.30;;;;;;;7.00;100.00;100673.91;5101777;28;20046;-74
2023/04/23 02:10:11;;;;;;;66.75;37.45;;;;;;;6.98;100.00;100668.72;5106219;27;20032;-74
2023/04/23 02:12:37;;;;;;;64.75;36.92;;;;;;;7.00;100.00;100668.72;5110784;27;20662;-73
2023/04/23 02:15:05;;;;;;;68.50;37.13;;;;;;;6.98;100.00;100666.13;5114921;28;20509;-74
2023/04/23 02:17:30;;;;;;;65.70;35.53;;;;;;;6.99;100.00;100657.47;5109349;27;20055;-74
2023/04/23 02:19:55;;;;;;;66.40;36.53;;;;;;;7.01;100.00;100652.28;5114203;28;20070;-74
2023/04/23 02:22:23;;;;;;;65.72;36.63;;;;;;;7.06;100.00;100647.91;5113639;28;20115;-74
2023/04/23 02:24:52;;;;;;;66.78;37.10;;;;;;;7.10;100.00;100653.94;5114412;28;20024;-74
2023/04/23 02:27:18;;;;;;;65.20;35.47;;;;;;;7.13;100.00;100651.28;5112899;28;20084;-74
2023/04/23 02:29:44;;;;;;;64.88;35.65;;;;;;;7.16;100.00;100653.81;5114630;27;20028;-74
2023/04/23 02:32:09;;;;;;;72.40;37.10;;;;;;;7.17;100.00;100659.00;5110315;28;20019;-74
2023/04/23 02:34:34;;;;;;;68.03;37.53;;;;;;;7.16;100.00;100659.00;5113853;27;20028;-74
2023/04/23 02:37:00;;;;;;;60.78;35.75;;;;;;;7.07;100.00;100654.81;5110418;28;20027;-74
2023/04/23 02:39:25;;;;;;;62.20;34.83;;;;;;;7.04;100.00;100654.84;5114392;28;20461;-73
2023/04/23 02:41:50;;;;;;;59.90;34.17;;;;;;;6.93;100.00;100652.41;5113637;28;20076;-74
2023/04/23 02:44:16;;;;;;;55.17;33.10;;;;;;;6.89;100.00;100653.28;5114638;28;20097;-74
2023/04/23 02:46:41;;;;;;;59.42;33.17;;;;;;;6.90;100.00;100651.53;5107515;28;20019;-74
2023/04/23 02:49:06;;;;;;;63.05;34.67;;;;;;;6.90;100.00;100647.25;5112933;28;20486;-73
2023/04/23 02:51:32;;;;;;;61.72;34.60;;;;;;;6.97;100.00;100648.03;5114357;28;20024;-73
2023/04/23 02:53:58;;;;;;;63.83;34.67;;;;;;;7.00;100.00;100650.59;5112066;28;20023;-74
2023/04/23 02:56:23;;;;;;;63.33;35.58;;;;;;;7.02;100.00;100643.63;5112970;28;20399;-74
2023/04/23 02:58:48;;;;;;;56.10;34.08;;;;;;;7.09;100.00;100642.69;5113751;28;20058;-74
2023/04/23 03:01:14;;;;;;;64.40;35.60;;;;;;;7.14;100.00;100651.25;5113592;28;20035;-74
2023/04/23 03:03:40;;;;;;;60.40;34.17;;;;;;;7.20;100.00;100647.75;5105798;28;20016;-74
2023/04/23 03:06:06;;;;;;;65.25;36.60;;;;;;;7.22;100.00;100644.22;5101544;28;20462;-74
2023/04/23 03:08:31;;;;;;;61.22;35.13;;;;;;;7.24;100.00;100641.63;5108963;28;20103;-74
2023/04/23 03:11:00;;;;;;;66.05;33.40;;;;;;;7.22;100.00;100645.97;5112663;28;20020;-74
2023/04/23 03:13:28;;;;;;;55.38;32.35;;;;;;;7.15;100.00;100631.38;5113556;28;20104;-74
2023/04/23 03:15:53;;;;;;;56.05;32.78;;;;;;;7.08;100.00;100640.13;5112873;28;20055;-74
2023/04/23 03:18:19;;;;;;;51.65;32.67;;;;;;;7.04;100.00;100636.72;5107098;28;20035;-74
2023/04/23 03:20:45;;;;;;;57.25;32.25;;;;;;;7.03;100.00;100632.41;5113251;28;20387;-74
2023/04/23 03:23:10;;;;;;;59.70;33.00;;;;;;;7.07;100.00;100625.44;5113057;28;20028;-74
2023/04/23 03:25:38;;;;;;;56.95;33.28;;;;;;;7.07;100.00;100628.03;5113465;28;20557;-74
2023/04/23 03:28:04;;;;;;;59.10;34.55;;;;;;;7.16;100.00;100628.78;5105870;28;20376;-73
2023/04/23 03:30:30;;;;;;;58.60;34.28;;;;;;;7.12;100.00;100621.03;5111385;28;20057;-74
2023/04/23 03:32:56;;;;;;;61.75;33.50;;;;;;;7.23;100.00;100629.56;5110776;28;20119;-74
2023/04/23 03:35:22;;;;;;;62.03;34.95;;;;;;;7.28;100.00;100627.75;5113343;28;20077;-74
2023/04/23 03:37:47;;;;;;;57.60;33.80;;;;;;;7.33;100.00;100630.31;5108032;28;20080;-74
2023/04/23 03:40:13;;;;;;;59.75;34.45;;;;;;;7.33;100.00;100631.16;5113712;28;20451;-74
2023/04/23 03:42:38;;;;;;;59.42;33.25;;;;;;;7.34;100.00;100617.28;5112910;28;20023;-74
2023/04/23 03:45:04;;;;;;;61.95;34.33;;;;;;;7.38;100.00;100618.09;5111113;28;20393;-74
2023/04/23 03:47:30;;;;;;;62.53;34.35;;;;;;;7.42;100.00;100628.44;5108248;28;20028;-74
2023/04/23 03:49:56;;;;;;;59.00;32.55;;;;;;;7.44;100.00;100620.63;5112425;28;20061;-74
2023/04/23 03:52:24;;;;;;;59.55;34.33;;;;;;;7.44;100.00;100628.41;5113403;28;20054;-74
2023/04/23 03:54:49;;;;;;;57.42;33.58;;;;;;;7.42;100.00;100622.38;5110355;28;20023;-74
2023/04/23 03:57:15;;;;;;;55.95;33.55;;;;;;;7.44;100.00;100620.63;5102463;28;20036;-74
2023/04/23 03:59:40;;;;;;;61.47;33.38;;;;;;;7.45;100.00;100636.16;5104489;28;20479;-74
2023/04/23 04:02:05;;;;;;;50.55;31.63;;;;;;;7.43;100.00;100631.88;5113449;28;20410;-73
2023/04/23 04:04:32;;;;;;;51.40;31.05;;;;;;;7.38;100.00;100625.88;5112289;28;20032;-74
2023/04/23 04:07:01;;;;;;;53.63;32.15;;;;;;;7.35;100.00;100628.53;5109432;28;20814;-74
2023/04/23 04:09:27;;;;;;;49.92;32.35;;;;;;;7.31;100.00;100630.31;5113156;28;20034;-74
2023/04/23 04:11:53;;;;;;;50.35;31.10;;;;;;;7.22;100.00;100627.81;5111665;28;20023;-73
2023/04/23 04:14:21;;;;;;;52.55;32.10;;;;;;;7.21;100.00;100636.50;5113003;28;20138;-74
2023/04/23 04:16:46;;;;;;;53.92;31.00;;;;;;;7.15;100.00;100631.38;5095084;28;20135;-74
2023/04/23 04:19:12;;;;;;;53.72;31.90;;;;;;;7.11;100.00;100645.25;5111335;28;20494;-74
2023/04/23 04:21:37;;;;;;;55.15;31.45;;;;;;;7.02;100.00;100628.09;5112609;28;20502;-74
2023/04/23 04:24:05;;;;;;;49.17;30.83;;;;;;;7.04;100.00;100634.13;5108554;28;20742;-73
2023/04/23 04:26:31;;;;;;;54.50;31.38;;;;;;;7.03;100.00;100643.63;5097270;28;20073;-74
2023/04/23 04:29:00;;;;;;;55.63;32.03;;;;;;;7.02;100.00;100638.44;5110897;28;20019;-74
2023/04/23 04:31:29;;;;;;;52.85;30.67;;;;;;;6.97;100.00;100638.50;5112633;28;20016;-74
2023/04/23 04:33:55;;;;;;;58.17;31.33;;;;;;;7.00;100.00;100635.03;5110146;28;20482;-74
2023/04/23 04:36:23;;;;;;;57.53;30.85;;;;;;;7.00;100.00;100632.44;5084493;28;20462;-74
2023/04/23 04:38:50;;;;;;;60.67;32.97;;;;;;;7.00;100.00;100637.63;5111837;28;20081;-74
2023/04/23 04:41:16;;;;;;;53.42;31.73;;;;;;;6.88;100.00;100617.88;5112145;28;20016;-74
2023/04/23 04:43:42;;;;;;;54.25;31.63;;;;;;;6.92;100.00;100626.47;5104736;28;20024;-73
2023/04/23 04:46:10;;;;;;;53.20;30.65;;;;;;;6.91;100.00;100630.81;5106799;28;20035;-73
2023/04/23 04:48:35;;;;;;;53.75;30.38;;;;;;;6.88;100.00;100638.63;5106464;28;20107;-74
2023/04/23 04:51:01;;;;;;;56.78;31.17;;;;;;;6.82;100.00;100622.28;5112383;28;20055;-74
2023/04/23 04:53:26;;;;;;;57.42;32.08;;;;;;;6.80;100.00;100636.13;5097838;28;20028;-74
2023/04/23 04:55:51;;;;;;;51.15;30.48;;;;;;;6.77;100.00;100638.75;5110216;28;20026;-74
2023/04/23 04:58:17;;;;;;;55.72;30.52;;;;;;;6.75;100.00;100637.03;5111206;28;20351;-74
2023/04/23 05:00:43;;;;;;;54.45;31.42;;;;;;;6.72;100.00;100627.56;5111684;28;20401;-74
2023/04/23 05:03:08;;;;;;;61.85;32.55;;;;;;;6.79;100.00;100646.50;5112278;28;20467;-74
2023/04/23 05:05:37;;;;;;;60.25;31.73;;;;;;;6.74;100.00;100630.16;5107860;28;20026;-74
2023/04/23 05:08:02;;;;;;;62.50;33.13;;;;;;;6.85;100.00;100643.84;5100675;28;20032;-74
2023/04/23 05:10:28;;;;;;;63.38;34.15;;;;;;;6.95;100.00;100640.25;5112577;28;20016;-74
2023/04/23 05:12:56;;;;;;;66.53;34.75;;;;;;;7.04;100.00;100644.47;5111839;28;20079;-74
2023/04/23 05:15:21;;;;;;;61.28;33.78;;;;;;;7.10;100.00;100647.00;5109933;28;20478;-74
2023/04/23 05:17:46;;;;;;;69.30;35.33;;;;;;;7.19;100.00;100646.00;5111136;28;20076;-74
2023/04/23 05:20:12;;;;;;;70.57;36.60;;;;;;;7.30;100.00;100638.97;5116179;28;20557;-74
2023/04/23 05:22:38;;;;;;;75.47;38.65;;;;;;;7.37;100.00;100638.00;5115637;28;20023;-74
2023/04/23 05:25:04;;;;;;;69.40;36.17;;;;;;;7.45;100.00;100632.69;5114830;28;20020;-74
2023/04/23 05:27:30;;;;;;;72.35;38.85;;;;;;;7.55;100.00;100644.66;5110860;28;20103;-74
2023/04/23 05:29:55;;;;;;;67.40;35.03;;;;;;;7.62;100.00;100640.25;5115074;28;20466;-74
2023/04/23 05:32:20;;;;;;;67.38;34.95;;;;;;;7.63;100.00;100635.03;5115972;28;20030;-74
2023/04/23 05:34:46;;;;;;;69.28;35.63;;;;;;;7.64;100.00;100647.13;5113844;28;20020;-74
2023/04/23 05:37:11;;;;;;;60.38;33.95;;;;;;;7.66;100.00;100650.56;5105632;28;20038;-74
2023/04/23 05:39:36;;;;;;;60.35;34.38;;;;;;;7.74;100.00;100646.09;5115648;28;20466;-74
2023/04/23 05:42:01;;;;;;;58.78;34.58;;;;;;;7.81;100.00;100646.03;5115490;28;20080;-74
2023/04/23 05:44:27;;;;;;;56.72;34.03;;;;;;;7.83;100.00;100633.88;5113576;28;20023;-74
2023/04/23 05:46:53;;;;;;;56.08;32.17;;;;;;;7.85;100.00;100638.19;5109741;28;20028;-74
2023/04/23 05:49:18;;;;;;;52.25;30.95;;;;;;;7.84;100.00;100639.03;5115398;28;20030;-74
2023/04/23 05:51:43;;;;;;;48.53;29.38;;;;;;;7.86;100.00;100636.44;5114942;28;20188;-74
2023/04/23 05:54:09;;;;;;;50.17;30.13;;;;;;;7.84;100.00;100639.03;5112506;28;20023;-74
2023/04/23 05:56:34;;;;;;;49.25;29.85;;;;;;;7.80;100.00;100631.34;5110126;28;20110;-74
2023/04/23 05:58:59;;;;;;;48.83;29.80;;;;;;;7.86;100.00;100645.06;5113060;28;20062;-74
2023/04/23 06:01:25;;;;;;;50.75;29.88;;;;;;;7.89;100.00;100633.78;5112057;28;20119;-74
2023/04/23 06:03:51;;;;;;;47.70;29.40;;;;;;;7.96;100.00;100638.00;5112774;28;20047;-74
2023/04/23 06:06:16;;;;;;;51.47;29.38;;;;;;;8.04;100.00;100643.91;5114888;28;20026;-74
2023/04/23 06:08:41;;;;;;;46.72;28.90;;;;;;;8.09;100.00;100626.53;5110324;28;20429;-74
2023/04/23 06:11:16;;;;;;;44.65;27.52;;;;;;;8.22;100.00;100634.97;5114676;28;20070;-74
2023/04/23 06:13:42;;;;;;;46.05;28.55;;;;;;;8.30;100.00;100627.91;5113680;28;20053;-73
2023/04/23 06:16:07;;;;;;;46.72;28.70;;;;;;;8.35;100.00;100628.69;5115061;28;20112;-74
2023/04/23 06:18:33;;;;;;;48.53;29.48;;;;;;;8.42;100.00;100616.47;5110277;27;20023;-74
2023/04/23 06:21:03;;;;;;;43.15;28.00;;;;;;;8.46;100.00;100617.28;5114726;28;20071;-74
2023/04/23 06:23:28;;;;;;;46.53;27.92;;;;;;;8.54;100.00;100616.25;5108980;28;20423;-74
2023/04/23 06:25:54;;;;;;;48.08;27.95;;;;;;;8.57;100.00;100608.41;5112198;28;20051;-74
2023/04/23 06:28:19;;;;;;;43.88;26.90;;;;;;;8.65;100.00;100603.06;5112907;28;20030;-74
2023/04/23 06:30:44;;;;;;;41.55;26.83;;;;;;;8.75;100.00;100603.72;5114057;27;20535;-74
2023/04/23 06:33:09;;;;;;;41.22;25.33;;;;;;;8.84;100.00;100607.00;5109399;28;20081;-74
2023/04/23 06:35:35;;;;;;;40.33;26.10;;;;;;;8.88;100.00;100594.81;5103846;28;20114;-74
2023/04/23 06:38:00;;;;;;;37.80;24.38;;;;;;;8.97;100.00;100597.22;5110454;28;20023;-74
2023/04/23 06:40:26;;;;;;;34.90;23.85;;;;;;;9.01;100.00;100587.59;5103595;28;20026;-74
2023/04/23 06:42:51;;;;;;;35.80;22.50;;;;;;;9.09;100.00;100596.09;5112000;28;20026;-74
2023/04/23 06:45:17;;;;;;;34.20;23.35;;;;;;;9.19;100.00;100599.34;5104400;28;20067;-74
2023/04/23 06:47:42;;;;;;;34.08;20.33;;;;;;;9.20;100.00;100601.09;5109082;28;20036;-74
2023/04/23 06:50:07;;;;;;;29.25;19.95;;;;;;;9.25;100.00;100599.22;5114749;28;20439;-74
2023/04/23 06:52:33;;;;;;;28.98;19.92;;;;;;;9.33;100.00;100599.91;5114583;28;20463;-74
2023/04/23 06:55:01;;;;;;;25.73;19.23;;;;;;;9.40;100.00;100598.88;5105971;28;20028;-74
2023/04/23 06:57:27;;;;;;;25.80;18.52;;;;;;;9.48;100.00;100607.41;5102348;28;20031;-74
2023/04/23 06:59:52;;;;;;;25.25;18.02;;;;;;;9.58;100.00;100592.41;5110990;28;20012;-74
2023/04/23 07:02:18;;;;;;;24.92;18.80;;;;;;;9.61;100.00;100593.22;5089071;28;20387;-74
2023/04/23 07:04:43;;;;;;;25.13;17.80;;;;;;;9.70;100.00;100591.25;5090462;28;20024;-74
2023/04/23 07:07:08;;;;;;;23.55;16.50;;;;;;;9.75;100.00;100592.03;5093239;28;20417;-74
2023/04/23 07:09:34;;;;;;;23.05;14.73;;;;;;;9.76;100.00;100588.50;5107465;28;20034;-74
2023/04/23 07:12:00;;;;;;;26.15;15.30;;;;;;;9.82;100.00;100586.63;5107620;28;20555;-75
2023/04/23 07:14:25;;;;;;;23.40;15.32;;;;;;;9.93;100.00;100588.09;5099748;28;20040;-74
2023/04/23 07:16:51;;;;;;;22.83;13.43;;;;;;;10.02;100.00;100587.88;5099949;28;20023;-74
2023/04/23 07:19:16;;;;;;;23.73;12.32;;;;;;;10.06;100.00;100590.34;5095641;28;20024;-74
2023/04/23 07:21:41;;;;;;;18.17;12.27;;;;;;;10.13;100.00;100590.19;5113000;28;20023;-74
2023/04/23 07:24:06;;;;;;;18.80;11.75;;;;;;;10.24;100.00;100589.03;5112149;28;20471;-74
2023/04/23 07:26:33;;;;;;;18.48;11.73;;;;;;;10.37;100.00;100584.41;5095443;28;20775;-75
2023/04/23 07:28:58;;;;;;;18.85;10.38;;;;;;;10.42;100.00;100576.44;5092713;28;20071;-74
2023/04/23 07:31:24;;;;;;;15.93;10.60;;;;;;;10.53;100.00;100585.69;5090103;28;20078;-74
2023/04/23 07:33:49;;;;;;;16.98;10.05;;;;;;;10.55;100.00;100576.06;5097086;28;20024;-74
2023/04/23 07:36:14;;;;;;;22.05;10.68;;;;;;;10.61;100.00;100584.63;5102541;28;20028;-74
2023/04/23 07:38:40;;;;;;;17.33;10.20;;;;;;;10.67;100.00;100580.09;5104054;28;20032;-74
2023/04/23 07:41:05;;;;;;;17.00;8.50;;;;;;;10.64;100.00;100571.50;5111335;28;20103;-74
2023/04/23 07:43:30;;;;;;;18.38;8.98;;;;;;;10.64;100.00;100574.13;5113037;28;20364;-74
2023/04/23 07:45:56;;;;;;;17.42;8.50;;;;;;;10.71;100.00;100578.25;5104661;28;20032;-74
2023/04/23 07:48:21;;;;;;;17.30;8.70;;;;;;;10.76;100.00;100572.00;5100690;28;20024;-74
2023/04/23 07:50:47;;;;;;;14.43;8.15;;;;;;;10.81;100.00;100565.81;5104313;28;20084;-73
2023/04/23 07:53:12;;;;;;;13.07;7.38;;;;;;;10.90;100.00;100575.97;5113011;28;20028;-73
2023/04/23 07:55:38;;;;;;;16.88;8.05;;;;;;;10.97;100.00;100569.69;5099742;28;20028;-76
2023/04/23 07:58:03;;;;;;;11.68;6.97;;;;;;;11.05;100.00;100567.69;5101522;28;20073;-74
2023/04/23 08:00:28;;;;;;;15.15;7.00;;;;;;;11.09;100.00;100568.47;5105462;28;20038;-74
2023/04/23 08:02:53;;;;;;;12.00;6.53;;;;;;;11.18;100.00;100574.28;5105882;28;20024;-74
2023/04/23 08:05:21;;;;;;;14.63;6.35;;;;;;;11.25;100.00;100565.34;5108796;28;20031;-74
2023/04/23 08:07:46;;;;;;;11.10;6.65;;;;;;;11.36;100.00;100558.94;5093299;28;20024;-74
2023/04/23 08:10:12;;;;;;;12.27;6.00;;;;;;;11.42;100.00;100559.59;5110826;28;20038;-75
2023/04/23 08:12:37;;;;;;;12.95;6.65;;;;;;;11.54;100.00;100554.88;5110975;28;20039;-74
2023/04/23 08:15:03;;;;;;;15.32;6.60;;;;;;;11.53;100.00;100561.00;5102678;28;20455;-74
2023/04/23 08:17:28;;;;;;;10.23;6.00;;;;;;;11.59;100.00;100547.78;5109747;28;20020;-74
2023/04/23 08:19:54;;;;;;;10.15;6.05;;;;;;;11.65;100.00;100545.81;5095790;28;20058;-76
2023/04/23 08:22:19;;;;;;;9.68;5.32;;;;;;;11.70;100.00;100548.25;5106458;28;20486;-75
2023/04/23 08:24:45;;;;;;;13.80;5.88;;;;;;;11.83;100.00;100539.13;5111980;28;20019;-75
2023/04/23 08:27:10;;;;;;;12.40;6.20;;;;;;;11.98;100.00;100539.56;5101762;28;20032;-74
2023/04/23 08:29:36;;;;;;;12.57;5.82;;;;;;;12.04;100.00;100539.34;5112725;28;20020;-75
2023/04/23 08:32:01;;;;;;;13.48;5.50;;;;;;;12.07;100.00;100529.66;5105298;28;20031;-75
2023/04/23 08:34:28;;;;;;;12.95;5.13;;;;;;;12.11;100.00;100541.69;5112465;28;20028;-75
2023/04/23 08:36:53;;;;;;;10.48;4.72;;;;;;;12.21;100.00;100537.00;5098044;28;20076;-75
2023/04/23 08:39:18;;;;;;;9.40;4.53;;;;;;;12.36;100.00;100539.06;5095883;28;20039;-75
2023/04/23 08:41:48;;;;;;;11.25;4.25;;;;;;;12.50;100.00;100545.56;5112451;28;20020;-74
2023/04/23 08:44:33;;;;;;;9.60;4.53;;;;;;;12.57;100.00;100528.75;5100342;28;20485;-74
2023/04/23 08:47:03;;;;;;;7.45;3.72;;;;;;;12.76;100.00;100523.69;5098113;28;20028;-75
2023/04/23 08:49:32;;;;;;;10.88;3.83;;;;;;;12.80;100.00;100536.59;5108686;28;20157;-74
2023/04/23 08:52:03;;;;;;;11.25;3.63;;;;;;;12.84;100.00;100535.56;5103402;28;20059;-75
2023/04/23 08:54:31;;;;;;;11.25;3.95;;;;;;;12.95;100.00;100536.91;5112676;28;20463;-74
2023/04/23 08:56:57;;;;;;;9.27;3.60;;;;;;;12.86;100.00;100530.28;5116590;28;20480;-74
2023/04/23 08:59:35;;;;;;;10.10;3.40;;;;;;;13.04;100.00;100531.31;5116171;28;20046;-75
2023/04/23 09:02:06;;;;;;;9.00;3.88;;;;;;;13.25;100.00;100532.31;5109600;28;20036;-74
2023/04/23 09:04:32;;;;;;;9.13;3.15;;;;;;;13.46;100.00;100541.06;5108868;28;20031;-75
2023/04/23 09:06:59;;;;;;;6.22;3.05;;;;;;;13.39;100.00;100535.22;5110681;28;20031;-74
2023/04/23 09:09:27;;;;;;;10.57;3.72;;;;;;;13.31;100.00;100530.28;5108513;28;20026;-74
2023/04/23 09:11:54;;;;;;;10.27;3.17;;;;;;;13.23;100.00;100539.31;5115512;28;20357;-74
2023/04/23 09:14:21;;;;;;;9.38;3.08;;;;;;;13.21;100.00;100531.53;5105069;28;20023;-74
2023/04/23 09:16:47;;;;;;;9.23;2.67;;;;;;;13.25;100.00;100529.69;5110455;28;20032;-74
2023/04/23 09:19:13;;;;;;;10.57;2.40;;;;;;;13.41;100.00;100530.78;5100746;28;20037;-74
2023/04/23 09:21:41;;;;;;;10.77;2.78;;;;;;;13.63;100.00;100528.13;5115431;28;20031;-74
2023/04/23 09:24:10;;;;;;;7.70;3.60;;;;;;;13.74;100.00;100530.31;5116143;27;20018;-74
2023/04/23 09:26:42;;;;;;;10.60;3.10;;;;;;;13.98;100.00;100515.31;5116085;28;20028;-74
2023/04/23 09:29:12;;;;;;;9.45;2.83;;;;;;;14.33;100.00;100516.44;5115295;28;20452;-74
2023/04/23 09:31:38;;;;;;;10.90;2.72;;;;;;;14.41;100.00;100516.91;5115725;28;20026;-74
2023/04/23 09:34:03;;;;;;;8.52;2.42;;;;;;;14.54;100.00;100506.78;5111919;28;20027;-74
2023/04/23 09:36:30;;;;;;;6.78;2.53;;;;;;;14.67;98.74;100507.91;5106827;28;20024;-74
2023/04/23 09:39:00;;;;;;;9.00;2.75;;;;;;;14.81;97.64;100504.66;5108815;28;20080;-74
2023/04/23 09:41:27;;;;;;;6.40;1.98;;;;;;;14.88;98.81;100500.84;5101325;28;20050;-74
2023/04/23 09:43:56;;;;;;;5.68;2.35;;;;;;;15.26;94.35;100499.94;5114415;28;20097;-74
2023/04/23 09:46:34;;;;;;;6.65;2.00;;;;;;;15.47;97.28;100498.91;5098823;28;20102;-74
2023/04/23 09:49:02;;;;;;;8.88;2.22;;;;;;;15.53;85.99;100509.09;5114795;28;20070;-74
2023/04/23 09:51:31;;;;;;;10.75;2.20;;;;;;;15.46;92.75;100499.81;5115744;28;20016;-74
2023/04/23 09:53:57;;;;;;;5.07;2.20;;;;;;;15.38;94.62;100509.84;5115102;28;20177;-74
2023/04/23 09:56:23;;;;;;;8.85;2.28;;;;;;;15.33;87.21;100507.44;5114940;28;20054;-74
2023/04/23 09:58:49;;;;;;;6.95;2.22;;;;;;;15.40;95.64;100500.97;5112322;28;20055;-74
2023/04/23 10:01:14;;;;;;;6.80;2.40;;;;;;;15.42;89.05;100503.50;5094621;28;20518;-74
2023/04/23 10:03:43;;;;;;;9.23;2.42;;;;;;;15.43;86.58;100495.56;5091596;28;20494;-74
2023/04/23 10:06:14;;;;;;;9.15;2.40;;;;;;;15.70;86.40;100499.56;5105430;28;20475;-73
2023/04/23 10:08:40;;;;;;;6.72;2.33;;;;;;;15.88;86.50;100493.38;5101183;28;20039;-74
2023/04/23 10:11:06;;;;;;;6.93;2.60;;;;;;;16.17;90.77;100488.38;5101089;28;20432;-75
2023/04/23 10:13:33;;;;;;;7.80;2.58;;;;;;;16.46;90.55;100489.47;5086940;28;20031;-74
2023/04/23 10:16:01;;;;;;;8.63;2.10;;;;;;;16.69;79.59;100485.59;5113190;28;20027;-74
2023/04/23 10:18:29;;;;;;;7.18;2.70;;;;;;;16.88;81.53;100475.81;5107320;28;20051;-75
2023/04/23 10:20:56;;;;;;;6.97;2.33;;;;;;;17.00;76.98;100488.28;5094892;28;20028;-75
2023/04/23 10:23:23;;;;;;;6.20;2.13;;;;;;;17.08;75.50;100483.44;5085463;28;20032;-73
2023/04/23 10:25:52;;;;;;;7.82;2.30;;;;;;;17.15;76.77;100483.09;5099669;28;20027;-73
2023/04/23 10:28:25;;;;;;;8.93;2.95;;;;;;;17.15;75.26;100486.56;5109367;28;20093;-73
2023/04/23 10:30:52;;;;;;;6.40;2.38;;;;;;;17.09;78.66;100479.00;5106982;28;20027;-73
2023/04/23 10:33:19;;;;;;;6.32;2.25;;;;;;;17.04;77.56;100475.81;5112205;28;20070;-73
2023/04/23 10:35:46;;;;;;;7.47;2.40;;;;;;;16.91;77.47;100472.16;5105041;28;20036;-72
2023/04/23 10:38:12;;;;;;;4.22;2.45;;;;;;;16.82;78.90;100476.13;5093582;28;20379;-73
2023/04/23 10:40:39;;;;;;;7.35;2.47;;;;;;;16.66;80.19;100465.56;5094281;28;20035;-72
2023/04/23 10:43:04;;;;;;;7.30;2.20;;;;;;;16.69;76.15;100461.94;5098550;28;20027;-72
2023/04/23 10:45:31;;;;;;;5.38;2.20;;;;;;;16.77;79.71;100457.09;5114208;28;20378;-72
2023/04/23 10:47:57;;;;;;;7.85;2.20;;;;;;;16.85;76.25;100449.66;5114216;28;20016;-72
2023/04/23 10:50:27;;;;;;;7.75;2.30;;;;;;;17.12;79.16;100456.94;5114478;28;20028;-73
2023/04/23 10:52:54;;;;;;;6.25;2.55;;;;;;;17.30;79.49;100446.19;5113606;28;20023;-72
2023/04/23 10:55:21;;;;;;;4.85;2.10;;;;;;;17.66;73.80;100446.78;5114302;28;20019;-72
2023/04/23 10:57:56;;;;;;;7.38;2.15;;;;;;;17.90;73.98;100442.69;5113852;28;20110;-72
2023/04/23 11:00:21;;;;;;;8.00;2.50;;;;;;;17.82;74.88;100431.78;5114117;28;20024;-72
2023/04/23 11:02:46;;;;;;;4.57;2.08;;;;;;;17.74;72.48;100439.25;5113905;28;20050;-72
2023/04/23 11:05:12;;;;;;;6.38;2.45;;;;;;;17.62;69.78;100414.44;5113826;28;20031;-72
2023/04/23 11:07:38;;;;;;;6.57;2.60;;;;;;;17.64;71.42;100432.81;5104807;28;20089;-72